sensor_id;sensor_type;location;lat;lon;timestamp;temperature;humidity
47805;DHT22;33568;45.286;9.900;2023-02-18T00:01:22;10.00;92.10
47805;DHT22;33568;45.286;9.900;2023-02-18T00:03:49;10.00;92.20
47805;DHT22;33568;45.286;9.900;2023-02-18T00:06:18;10.00;92.20
47805;DHT22;33568;45.286;9.900;2023-02-18T00:08:45;10.10;92.20
47805;DHT22;33568;45.286;9.900;2023-02-18T00:11:12;10.00;92.20
47805;DHT22;33568;45.286;9.900;2023-02-18T00:13:39;10.00;92.20
47805;DHT22;33568;45.286;9.900;2023-02-18T00:16:06;10.10;92.20
47805;DHT22;33568;45.286;9.900;2023-02-18T00:18:33;10.00;92.60
47805;DHT22;33568;45.286;9.900;2023-02-18T00:21:01;9.90;92.90
47805;DHT22;33568;45.286;9.900;2023-02-18T00:23:28;10.00;92.20
47805;DHT22;33568;45.286;9.900;2023-02-18T00:26:09;9.90;92.00
47805;DHT22;33568;45.286;9.900;2023-02-18T00:28:39;10.00;92.20
47805;DHT22;33568;45.286;9.900;2023-02-18T00:31:14;9.90;92.00
47805;DHT22;33568;45.286;9.900;2023-02-18T00:33:41;10.00;92.00
47805;DHT22;33568;45.286;9.900;2023-02-18T00:36:10;9.90;92.00
47805;DHT22;33568;45.286;9.900;2023-02-18T00:38:37;9.90;91.90
47805;DHT22;33568;45.286;9.900;2023-02-18T00:41:04;9.90;91.90
47805;DHT22;33568;45.286;9.900;2023-02-18T00:43:33;9.90;91.90
47805;DHT22;33568;45.286;9.900;2023-02-18T00:45:59;9.80;91.90
47805;DHT22;33568;45.286;9.900;2023-02-18T00:48:27;9.90;92.00
47805;DHT22;33568;45.286;9.900;2023-02-18T00:50:53;9.80;91.90
47805;DHT22;33568;45.286;9.900;2023-02-18T00:53:22;9.70;92.10
47805;DHT22;33568;45.286;9.900;2023-02-18T00:55:49;9.70;91.90
47805;DHT22;33568;45.286;9.900;2023-02-18T00:58:16;9.70;92.00
47805;DHT22;33568;45.286;9.900;2023-02-18T01:00:43;9.70;92.00
47805;DHT22;33568;45.286;9.900;2023-02-18T01:03:09;9.60;92.40
47805;DHT22;33568;45.286;9.900;2023-02-18T01:05:37;9.60;91.90
47805;DHT22;33568;45.286;9.900;2023-02-18T01:08:07;9.50;91.90
47805;DHT22;33568;45.286;9.900;2023-02-18T01:10:35;9.50;91.90
47805;DHT22;33568;45.286;9.900;2023-02-18T01:13:04;9.50;92.00
47805;DHT22;33568;45.286;9.900;2023-02-18T01:15:31;9.40;92.00
47805;DHT22;33568;45.286;9.900;2023-02-18T01:17:57;9.40;92.10
47805;DHT22;33568;45.286;9.900;2023-02-18T01:20:24;9.40;92.20
47805;DHT22;33568;45.286;9.900;2023-02-18T01:22:51;9.40;92.30
47805;DHT22;33568;45.286;9.900;2023-02-18T01:25:17;9.40;92.40
47805;DHT22;33568;45.286;9.900;2023-02-18T01:27:43;9.40;92.40
47805;DHT22;33568;45.286;9.900;2023-02-18T01:30:13;9.20;92.70
47805;DHT22;33568;45.286;9.900;2023-02-18T01:32:40;9.10;92.40
47805;DHT22;33568;45.286;9.900;2023-02-18T01:35:11;9.00;92.50
47805;DHT22;33568;45.286;9.900;2023-02-18T01:37:37;8.80;92.60
47805;DHT22;33568;45.286;9.900;2023-02-18T01:40:06;8.70;92.90
47805;DHT22;33568;45.286;9.900;2023-02-18T01:42:33;8.70;93.00
47805;DHT22;33568;45.286;9.900;2023-02-18T01:50:34;8.60;93.00
47805;DHT22;33568;45.286;9.900;2023-02-18T01:53:01;8.60;93.00
47805;DHT22;33568;45.286;9.900;2023-02-18T01:55:31;8.60;92.90
47805;DHT22;33568;45.286;9.900;2023-02-18T01:57:58;8.60;92.90
47805;DHT22;33568;45.286;9.900;2023-02-18T02:00:25;8.60;93.00
47805;DHT22;33568;45.286;9.900;2023-02-18T02:02:52;8.50;93.10
47805;DHT22;33568;45.286;9.900;2023-02-18T02:05:20;8.60;93.10
47805;DHT22;33568;45.286;9.900;2023-02-18T02:07:50;8.50;93.10
47805;DHT22;33568;45.286;9.900;2023-02-18T02:10:18;8.60;93.20
47805;DHT22;33568;45.286;9.900;2023-02-18T02:22:13;8.50;93.40
47805;DHT22;33568;45.286;9.900;2023-02-18T02:25:08;8.40;93.70
47805;DHT22;33568;45.286;9.900;2023-02-18T02:44:23;8.10;94.00
47805;DHT22;33568;45.286;9.900;2023-02-18T02:47:17;8.10;94.10
47805;DHT22;33568;45.286;9.900;2023-02-18T02:50:00;8.10;94.10
47805;DHT22;33568;45.286;9.900;2023-02-18T02:52:36;8.20;94.00
47805;DHT22;33568;45.286;9.900;2023-02-18T02:55:08;8.20;94.00
47805;DHT22;33568;45.286;9.900;2023-02-18T02:57:47;8.20;93.90
47805;DHT22;33568;45.286;9.900;2023-02-18T03:00:27;8.20;93.90
47805;DHT22;33568;45.286;9.900;2023-02-18T03:05:54;8.10;93.80
47805;DHT22;33568;45.286;9.900;2023-02-18T03:11:42;7.70;93.60
47805;DHT22;33568;45.286;9.900;2023-02-18T03:15:01;7.50;93.50
47805;DHT22;33568;45.286;9.900;2023-02-18T03:20:30;7.30;93.50
47805;DHT22;33568;45.286;9.900;2023-02-18T03:23:05;7.20;93.80
47805;DHT22;33568;45.286;9.900;2023-02-18T03:25:33;7.10;93.50
47805;DHT22;33568;45.286;9.900;2023-02-18T03:28:10;7.10;93.50
47805;DHT22;33568;45.286;9.900;2023-02-18T03:30:49;7.10;93.60
47805;DHT22;33568;45.286;9.900;2023-02-18T03:33:20;7.00;94.20
47805;DHT22;33568;45.286;9.900;2023-02-18T03:35:50;7.00;93.60
47805;DHT22;33568;45.286;9.900;2023-02-18T03:39:17;7.00;93.70
47805;DHT22;33568;45.286;9.900;2023-02-18T03:41:17;7.00;93.90
47805;DHT22;33568;45.286;9.900;2023-02-18T03:43:57;7.00;93.90
47805;DHT22;33568;45.286;9.900;2023-02-18T03:46:28;7.00;94.10
47805;DHT22;33568;45.286;9.900;2023-02-18T03:48:55;7.10;94.00
47805;DHT22;33568;45.286;9.900;2023-02-18T03:51:21;7.10;94.00
47805;DHT22;33568;45.286;9.900;2023-02-18T03:53:48;7.10;94.60
47805;DHT22;33568;45.286;9.900;2023-02-18T03:56:14;7.10;94.00
47805;DHT22;33568;45.286;9.900;2023-02-18T03:58:41;7.10;94.60
47805;DHT22;33568;45.286;9.900;2023-02-18T04:01:07;7.20;94.00
47805;DHT22;33568;45.286;9.900;2023-02-18T04:03:34;7.20;93.80
47805;DHT22;33568;45.286;9.900;2023-02-18T04:06:00;7.20;93.80
47805;DHT22;33568;45.286;9.900;2023-02-18T04:08:26;7.20;93.80
47805;DHT22;33568;45.286;9.900;2023-02-18T04:10:53;7.20;93.80
47805;DHT22;33568;45.286;9.900;2023-02-18T04:13:19;7.20;94.30
47805;DHT22;33568;45.286;9.900;2023-02-18T04:15:48;7.20;93.80
47805;DHT22;33568;45.286;9.900;2023-02-18T04:18:15;7.20;93.70
47805;DHT22;33568;45.286;9.900;2023-02-18T04:20:41;7.20;93.70
47805;DHT22;33568;45.286;9.900;2023-02-18T04:23:08;7.20;93.80
47805;DHT22;33568;45.286;9.900;2023-02-18T04:25:34;7.20;93.80
47805;DHT22;33568;45.286;9.900;2023-02-18T04:28:03;7.20;93.90
47805;DHT22;33568;45.286;9.900;2023-02-18T04:30:30;7.20;93.90
47805;DHT22;33568;45.286;9.900;2023-02-18T04:32:56;7.20;93.90
47805;DHT22;33568;45.286;9.900;2023-02-18T04:35:23;7.20;93.80
47805;DHT22;33568;45.286;9.900;2023-02-18T04:37:49;7.10;93.80
47805;DHT22;33568;45.286;9.900;2023-02-18T04:40:15;7.00;94.10
47805;DHT22;33568;45.286;9.900;2023-02-18T04:42:42;7.00;93.70
47805;DHT22;33568;45.286;9.900;2023-02-18T04:45:08;7.00;94.10
47805;DHT22;33568;45.286;9.900;2023-02-18T04:47:35;6.90;93.70
47805;DHT22;33568;45.286;9.900;2023-02-18T04:50:01;6.90;93.70
47805;DHT22;33568;45.286;9.900;2023-02-18T04:52:28;6.90;93.70
47805;DHT22;33568;45.286;9.900;2023-02-18T04:54:54;6.90;93.80
47805;DHT22;33568;45.286;9.900;2023-02-18T04:57:20;6.90;93.90
47805;DHT22;33568;45.286;9.900;2023-02-18T04:59:47;6.90;93.90
47805;DHT22;33568;45.286;9.900;2023-02-18T05:02:13;6.80;94.20
47805;DHT22;33568;45.286;9.900;2023-02-18T05:04:40;6.80;93.80
47805;DHT22;33568;45.286;9.900;2023-02-18T05:07:06;6.80;93.70
47805;DHT22;33568;45.286;9.900;2023-02-18T05:09:32;6.70;93.70
47805;DHT22;33568;45.286;9.900;2023-02-18T05:11:59;6.70;93.70
47805;DHT22;33568;45.286;9.900;2023-02-18T05:14:25;6.70;93.70
47805;DHT22;33568;45.286;9.900;2023-02-18T05:16:52;6.70;93.80
47805;DHT22;33568;45.286;9.900;2023-02-18T05:19:18;6.70;93.80
47805;DHT22;33568;45.286;9.900;2023-02-18T05:21:44;6.70;93.80
47805;DHT22;33568;45.286;9.900;2023-02-18T05:24:11;6.70;93.80
47805;DHT22;33568;45.286;9.900;2023-02-18T05:26:37;6.60;93.70
47805;DHT22;33568;45.286;9.900;2023-02-18T05:29:04;6.60;94.10
47805;DHT22;33568;45.286;9.900;2023-02-18T05:31:31;6.70;93.90
47805;DHT22;33568;45.286;9.900;2023-02-18T05:33:57;6.70;93.90
47805;DHT22;33568;45.286;9.900;2023-02-18T05:36:24;6.60;94.20
47805;DHT22;33568;45.286;9.900;2023-02-18T05:38:50;6.60;93.90
47805;DHT22;33568;45.286;9.900;2023-02-18T05:41:17;6.60;93.90
47805;DHT22;33568;45.286;9.900;2023-02-18T05:43:43;6.50;94.30
47805;DHT22;33568;45.286;9.900;2023-02-18T05:46:28;6.50;93.90
47805;DHT22;33568;45.286;9.900;2023-02-18T05:48:54;6.50;93.90
47805;DHT22;33568;45.286;9.900;2023-02-18T05:51:21;6.40;93.90
47805;DHT22;33568;45.286;9.900;2023-02-18T05:53:47;6.40;94.20
47805;DHT22;33568;45.286;9.900;2023-02-18T05:56:13;6.30;94.00
47805;DHT22;33568;45.286;9.900;2023-02-18T05:58:40;6.30;93.90
47805;DHT22;33568;45.286;9.900;2023-02-18T06:01:06;6.20;94.10
47805;DHT22;33568;45.286;9.900;2023-02-18T06:03:33;6.00;94.00
47805;DHT22;33568;45.286;9.900;2023-02-18T06:05:59;5.90;94.40
47805;DHT22;33568;45.286;9.900;2023-02-18T06:08:25;5.80;94.50
47805;DHT22;33568;45.286;9.900;2023-02-18T06:10:52;5.80;94.60
47805;DHT22;33568;45.286;9.900;2023-02-18T06:13:18;5.80;94.90
47805;DHT22;33568;45.286;9.900;2023-02-18T06:15:44;5.70;94.80
47805;DHT22;33568;45.286;9.900;2023-02-18T06:18:11;5.60;94.80
47805;DHT22;33568;45.286;9.900;2023-02-18T06:20:38;5.60;95.90
47805;DHT22;33568;45.286;9.900;2023-02-18T06:23:06;5.60;95.10
47805;DHT22;33568;45.286;9.900;2023-02-18T06:25:33;5.50;95.00
47805;DHT22;33568;45.286;9.900;2023-02-18T06:27:59;5.60;95.00
47805;DHT22;33568;45.286;9.900;2023-02-18T06:30:26;5.60;94.90
47805;DHT22;33568;45.286;9.900;2023-02-18T06:32:52;5.50;94.90
47805;DHT22;33568;45.286;9.900;2023-02-18T06:35:18;5.60;95.00
47805;DHT22;33568;45.286;9.900;2023-02-18T06:37:45;5.50;94.80
47805;DHT22;33568;45.286;9.900;2023-02-18T06:40:11;5.50;94.80
47805;DHT22;33568;45.286;9.900;2023-02-18T06:42:38;5.50;94.90
47805;DHT22;33568;45.286;9.900;2023-02-18T06:45:04;5.50;94.90
47805;DHT22;33568;45.286;9.900;2023-02-18T06:47:32;5.50;95.80
47805;DHT22;33568;45.286;9.900;2023-02-18T06:49:59;5.50;95.10
47805;DHT22;33568;45.286;9.900;2023-02-18T06:52:25;5.50;95.30
47805;DHT22;33568;45.286;9.900;2023-02-18T06:54:52;5.60;95.10
47805;DHT22;33568;45.286;9.900;2023-02-18T06:57:18;5.60;96.00
47805;DHT22;33568;45.286;9.900;2023-02-18T06:59:44;5.70;95.20
47805;DHT22;33568;45.286;9.900;2023-02-18T07:02:14;5.80;95.00
47805;DHT22;33568;45.286;9.900;2023-02-18T07:04:40;5.90;95.00
47805;DHT22;33568;45.286;9.900;2023-02-18T07:07:07;5.90;95.00
47805;DHT22;33568;45.286;9.900;2023-02-18T07:09:33;6.10;95.10
47805;DHT22;33568;45.286;9.900;2023-02-18T07:11:59;6.10;95.20
47805;DHT22;33568;45.286;9.900;2023-02-18T07:14:26;6.30;95.30
47805;DHT22;33568;45.286;9.900;2023-02-18T07:16:53;6.40;95.40
47805;DHT22;33568;45.286;9.900;2023-02-18T07:19:20;6.50;95.40
47805;DHT22;33568;45.286;9.900;2023-02-18T07:21:46;6.50;95.80
47805;DHT22;33568;45.286;9.900;2023-02-18T07:24:12;6.60;95.30
47805;DHT22;33568;45.286;9.900;2023-02-18T07:26:39;6.50;94.90
47805;DHT22;33568;45.286;9.900;2023-02-18T07:29:05;6.30;95.20
47805;DHT22;33568;45.286;9.900;2023-02-18T07:31:32;6.30;95.40
47805;DHT22;33568;45.286;9.900;2023-02-18T07:33:58;6.40;95.50
47805;DHT22;33568;45.286;9.900;2023-02-18T07:36:25;6.50;95.50
47805;DHT22;33568;45.286;9.900;2023-02-18T07:38:51;6.60;95.40
47805;DHT22;33568;45.286;9.900;2023-02-18T07:41:20;6.70;95.40
47805;DHT22;33568;45.286;9.900;2023-02-18T07:43:47;6.70;95.40
47805;DHT22;33568;45.286;9.900;2023-02-18T07:46:13;6.80;95.50
47805;DHT22;33568;45.286;9.900;2023-02-18T07:48:40;6.80;95.40
47805;DHT22;33568;45.286;9.900;2023-02-18T07:51:08;6.80;95.90
47805;DHT22;33568;45.286;9.900;2023-02-18T07:53:36;6.90;95.50
47805;DHT22;33568;45.286;9.900;2023-02-18T07:56:03;7.00;95.30
47805;DHT22;33568;45.286;9.900;2023-02-18T07:58:32;7.10;95.20
47805;DHT22;33568;45.286;9.900;2023-02-18T08:00:59;7.20;95.20
47805;DHT22;33568;45.286;9.900;2023-02-18T08:03:29;7.30;95.10
47805;DHT22;33568;45.286;9.900;2023-02-18T08:05:56;7.50;95.10
47805;DHT22;33568;45.286;9.900;2023-02-18T08:08:27;7.60;95.10
47805;DHT22;33568;45.286;9.900;2023-02-18T08:10:56;7.60;95.20
47805;DHT22;33568;45.286;9.900;2023-02-18T08:13:23;7.70;95.30
47805;DHT22;33568;45.286;9.900;2023-02-18T08:15:50;7.70;95.40
47805;DHT22;33568;45.286;9.900;2023-02-18T08:18:21;7.80;96.10
47805;DHT22;33568;45.286;9.900;2023-02-18T08:20:48;7.90;95.50
47805;DHT22;33568;45.286;9.900;2023-02-18T08:23:19;7.90;95.60
47805;DHT22;33568;45.286;9.900;2023-02-18T08:25:52;8.00;95.70
47805;DHT22;33568;45.286;9.900;2023-02-18T08:28:21;8.10;95.70
47805;DHT22;33568;45.286;9.900;2023-02-18T08:30:49;8.10;96.00
47805;DHT22;33568;45.286;9.900;2023-02-18T08:33:16;8.20;96.10
47805;DHT22;33568;45.286;9.900;2023-02-18T08:35:44;8.20;96.20
47805;DHT22;33568;45.286;9.900;2023-02-18T08:38:11;8.30;96.30
47805;DHT22;33568;45.286;9.900;2023-02-18T08:40:37;8.40;96.30
47805;DHT22;33568;45.286;9.900;2023-02-18T08:43:03;8.40;96.40
47805;DHT22;33568;45.286;9.900;2023-02-18T08:45:30;8.50;96.40
47805;DHT22;33568;45.286;9.900;2023-02-18T08:47:56;8.60;96.50
47805;DHT22;33568;45.286;9.900;2023-02-18T08:50:23;8.70;96.40
47805;DHT22;33568;45.286;9.900;2023-02-18T08:52:52;8.70;96.40
47805;DHT22;33568;45.286;9.900;2023-02-18T08:55:18;8.70;96.50
47805;DHT22;33568;45.286;9.900;2023-02-18T08:57:48;8.70;96.70
47805;DHT22;33568;45.286;9.900;2023-02-18T09:00:15;8.70;96.90
47805;DHT22;33568;45.286;9.900;2023-02-18T09:02:43;8.80;96.90
47805;DHT22;33568;45.286;9.900;2023-02-18T09:05:10;8.90;96.90
47805;DHT22;33568;45.286;9.900;2023-02-18T09:07:36;9.00;97.00
47805;DHT22;33568;45.286;9.900;2023-02-18T09:10:03;9.20;96.80
47805;DHT22;33568;45.286;9.900;2023-02-18T09:12:29;9.20;97.20
47805;DHT22;33568;45.286;9.900;2023-02-18T09:14:56;9.40;96.60
47805;DHT22;33568;45.286;9.900;2023-02-18T09:17:22;9.50;96.40
47805;DHT22;33568;45.286;9.900;2023-02-18T09:19:48;9.60;96.60
47805;DHT22;33568;45.286;9.900;2023-02-18T09:22:15;9.80;96.10
47805;DHT22;33568;45.286;9.900;2023-02-18T09:24:41;10.10;95.90
47805;DHT22;33568;45.286;9.900;2023-02-18T09:27:07;10.30;96.30
47805;DHT22;33568;45.286;9.900;2023-02-18T09:29:36;10.60;95.50
47805;DHT22;33568;45.286;9.900;2023-02-18T09:32:03;11.00;95.60
47805;DHT22;33568;45.286;9.900;2023-02-18T09:34:30;12.00;95.10
47805;DHT22;33568;45.286;9.900;2023-02-18T09:36:56;12.90;94.00
47805;DHT22;33568;45.286;9.900;2023-02-18T09:39:22;13.70;92.10
47805;DHT22;33568;45.286;9.900;2023-02-18T09:41:50;15.00;92.30
47805;DHT22;33568;45.286;9.900;2023-02-18T09:44:20;15.80;87.30
47805;DHT22;33568;45.286;9.900;2023-02-18T09:46:54;16.40;85.10
47805;DHT22;33568;45.286;9.900;2023-02-18T09:49:25;17.30;87.90
47805;DHT22;33568;45.286;9.900;2023-02-18T09:51:55;17.90;83.70
47805;DHT22;33568;45.286;9.900;2023-02-18T09:54:22;18.10;79.40
47805;DHT22;33568;45.286;9.900;2023-02-18T09:56:49;18.20;78.70
47805;DHT22;33568;45.286;9.900;2023-02-18T09:59:19;18.60;76.50
47805;DHT22;33568;45.286;9.900;2023-02-18T10:01:51;19.10;74.60
47805;DHT22;33568;45.286;9.900;2023-02-18T10:04:40;19.50;71.60
47805;DHT22;33568;45.286;9.900;2023-02-18T10:07:17;19.70;68.30
47805;DHT22;33568;45.286;9.900;2023-02-18T10:09:45;20.10;69.30
47805;DHT22;33568;45.286;9.900;2023-02-18T10:12:15;20.50;68.70
47805;DHT22;33568;45.286;9.900;2023-02-18T10:14:57;21.00;67.00
47805;DHT22;33568;45.286;9.900;2023-02-18T10:17:26;21.40;62.90
47805;DHT22;33568;45.286;9.900;2023-02-18T10:19:55;21.90;64.50
47805;DHT22;33568;45.286;9.900;2023-02-18T10:22:23;22.40;62.90
47805;DHT22;33568;45.286;9.900;2023-02-18T10:24:54;22.70;61.60
47805;DHT22;33568;45.286;9.900;2023-02-18T10:27:31;22.70;59.70
47805;DHT22;33568;45.286;9.900;2023-02-18T10:30:22;22.80;58.70
47805;DHT22;33568;45.286;9.900;2023-02-18T10:32:54;22.90;56.40
47805;DHT22;33568;45.286;9.900;2023-02-18T10:38:06;23.20;57.50
47805;DHT22;33568;45.286;9.900;2023-02-18T10:43:41;23.40;55.80
47805;DHT22;33568;45.286;9.900;2023-02-18T10:46:21;23.10;53.40
47805;DHT22;33568;45.286;9.900;2023-02-18T10:49:44;22.80;55.50
47805;DHT22;33568;45.286;9.900;2023-02-18T10:51:51;22.60;55.50
47805;DHT22;33568;45.286;9.900;2023-02-18T10:54:24;22.60;56.30
47805;DHT22;33568;45.286;9.900;2023-02-18T10:56:57;22.70;56.30
47805;DHT22;33568;45.286;9.900;2023-02-18T10:59:25;22.90;56.50
47805;DHT22;33568;45.286;9.900;2023-02-18T11:01:58;23.60;56.20
47805;DHT22;33568;45.286;9.900;2023-02-18T11:04:36;23.90;54.80
47805;DHT22;33568;45.286;9.900;2023-02-18T11:07:05;24.10;54.30
47805;DHT22;33568;45.286;9.900;2023-02-18T11:09:46;24.10;53.50
47805;DHT22;33568;45.286;9.900;2023-02-18T11:14:45;23.80;54.10
47805;DHT22;33568;45.286;9.900;2023-02-18T11:17:18;24.00;53.40
47805;DHT22;33568;45.286;9.900;2023-02-18T11:19:52;24.40;52.70
47805;DHT22;33568;45.286;9.900;2023-02-18T11:22:22;24.60;51.50
47805;DHT22;33568;45.286;9.900;2023-02-18T11:24:57;24.60;51.70
47805;DHT22;33568;45.286;9.900;2023-02-18T11:27:31;24.50;51.10
47805;DHT22;33568;45.286;9.900;2023-02-18T11:30:05;24.10;51.20
47805;DHT22;33568;45.286;9.900;2023-02-18T11:32:34;24.10;51.60
47805;DHT22;33568;45.286;9.900;2023-02-18T11:35:04;24.00;51.10
47805;DHT22;33568;45.286;9.900;2023-02-18T11:37:32;23.90;51.20
47805;DHT22;33568;45.286;9.900;2023-02-18T11:40:00;23.80;51.50
47805;DHT22;33568;45.286;9.900;2023-02-18T11:42:27;23.90;51.50
47805;DHT22;33568;45.286;9.900;2023-02-18T11:44:56;24.00;51.50
47805;DHT22;33568;45.286;9.900;2023-02-18T11:47:26;24.20;51.30
47805;DHT22;33568;45.286;9.900;2023-02-18T11:52:37;24.10;48.50
47805;DHT22;33568;45.286;9.900;2023-02-18T11:55:22;23.90;50.80
47805;DHT22;33568;45.286;9.900;2023-02-18T11:58:10;24.00;49.90
47805;DHT22;33568;45.286;9.900;2023-02-18T12:00:45;24.00;48.50
47805;DHT22;33568;45.286;9.900;2023-02-18T12:05:47;24.20;49.40
47805;DHT22;33568;45.286;9.900;2023-02-18T12:08:21;24.30;50.40
47805;DHT22;33568;45.286;9.900;2023-02-18T12:10:52;24.50;49.90
47805;DHT22;33568;45.286;9.900;2023-02-18T12:13:33;24.80;50.10
47805;DHT22;33568;45.286;9.900;2023-02-18T12:19:20;24.80;48.40
47805;DHT22;33568;45.286;9.900;2023-02-18T12:24:47;24.80;49.70
47805;DHT22;33568;45.286;9.900;2023-02-18T12:30:35;24.60;47.80
47805;DHT22;33568;45.286;9.900;2023-02-18T12:35:59;24.10;48.50
47805;DHT22;33568;45.286;9.900;2023-02-18T13:01:17;19.50;55.70
47805;DHT22;33568;45.286;9.900;2023-02-18T13:06:58;18.90;57.30
47805;DHT22;33568;45.286;9.900;2023-02-18T13:15:18;18.60;59.00
47805;DHT22;33568;45.286;9.900;2023-02-18T13:17:48;18.60;59.00
47805;DHT22;33568;45.286;9.900;2023-02-18T13:20:28;18.50;59.30
47805;DHT22;33568;45.286;9.900;2023-02-18T13:23:01;18.50;59.70
47805;DHT22;33568;45.286;9.900;2023-02-18T13:25:28;18.50;60.10
47805;DHT22;33568;45.286;9.900;2023-02-18T13:28:11;18.40;60.30
47805;DHT22;33568;45.286;9.900;2023-02-18T13:33:51;18.10;60.90
47805;DHT22;33568;45.286;9.900;2023-02-18T13:39:21;18.00;61.60
47805;DHT22;33568;45.286;9.900;2023-02-18T13:41:50;17.90;61.80
47805;DHT22;33568;45.286;9.900;2023-02-18T13:46:54;17.90;62.20
47805;DHT22;33568;45.286;9.900;2023-02-18T13:49:31;18.00;62.10
47805;DHT22;33568;45.286;9.900;2023-02-18T13:52:00;17.90;62.20
47805;DHT22;33568;45.286;9.900;2023-02-18T13:54:40;17.90;62.30
47805;DHT22;33568;45.286;9.900;2023-02-18T13:59:49;17.70;62.50
47805;DHT22;33568;45.286;9.900;2023-02-18T14:02:28;17.70;62.70
47805;DHT22;33568;45.286;9.900;2023-02-18T14:28:36;17.80;63.70
47805;DHT22;33568;45.286;9.900;2023-02-18T14:31:05;17.90;63.60
47805;DHT22;33568;45.286;9.900;2023-02-18T14:39:46;18.10;63.40
47805;DHT22;33568;45.286;9.900;2023-02-18T14:45:18;18.10;63.20
47805;DHT22;33568;45.286;9.900;2023-02-18T14:50:16;18.20;63.40
47805;DHT22;33568;45.286;9.900;2023-02-18T14:53:02;18.10;63.00
47805;DHT22;33568;45.286;9.900;2023-02-18T14:55:37;18.10;62.80
47805;DHT22;33568;45.286;9.900;2023-02-18T14:58:29;18.10;62.80
47805;DHT22;33568;45.286;9.900;2023-02-18T15:00:56;18.10;61.90
47805;DHT22;33568;45.286;9.900;2023-02-18T15:03:26;18.10;62.60
47805;DHT22;33568;45.286;9.900;2023-02-18T15:05:52;18.00;62.50
47805;DHT22;33568;45.286;9.900;2023-02-18T15:08:21;18.10;62.60
47805;DHT22;33568;45.286;9.900;2023-02-18T15:13:28;18.00;62.60
47805;DHT22;33568;45.286;9.900;2023-02-18T15:15:59;18.00;63.00
47805;DHT22;33568;45.286;9.900;2023-02-18T15:19:03;18.00;63.20
47805;DHT22;33568;45.286;9.900;2023-02-18T15:21:40;17.90;63.40
47805;DHT22;33568;45.286;9.900;2023-02-18T15:24:23;17.90;63.70
47805;DHT22;33568;45.286;9.900;2023-02-18T15:26:51;17.90;63.40
47805;DHT22;33568;45.286;9.900;2023-02-18T15:29:32;17.90;63.80
47805;DHT22;33568;45.286;9.900;2023-02-18T15:31:59;17.80;63.70
47805;DHT22;33568;45.286;9.900;2023-02-18T15:36:57;17.80;64.10
47805;DHT22;33568;45.286;9.900;2023-02-18T15:39:24;17.80;64.10
47805;DHT22;33568;45.286;9.900;2023-02-18T15:41:53;17.80;64.10
47805;DHT22;33568;45.286;9.900;2023-02-18T15:44:25;17.80;64.20
47805;DHT22;33568;45.286;9.900;2023-02-18T15:46:53;17.80;64.10
47805;DHT22;33568;45.286;9.900;2023-02-18T15:49:22;17.70;64.30
47805;DHT22;33568;45.286;9.900;2023-02-18T15:51:49;17.70;64.30
47805;DHT22;33568;45.286;9.900;2023-02-18T15:54:19;17.70;64.30
47805;DHT22;33568;45.286;9.900;2023-02-18T15:56:51;17.70;64.50
47805;DHT22;33568;45.286;9.900;2023-02-18T15:59:35;17.70;64.60
47805;DHT22;33568;45.286;9.900;2023-02-18T16:04:38;17.60;65.30
47805;DHT22;33568;45.286;9.900;2023-02-18T16:07:35;17.60;65.40
47805;DHT22;33568;45.286;9.900;2023-02-18T16:10:20;17.50;65.60
47805;DHT22;33568;45.286;9.900;2023-02-18T16:12:54;17.50;65.80
47805;DHT22;33568;45.286;9.900;2023-02-18T16:15:30;17.50;66.10
47805;DHT22;33568;45.286;9.900;2023-02-18T16:17:56;17.40;66.40
47805;DHT22;33568;45.286;9.900;2023-02-18T16:20:32;17.40;66.60
47805;DHT22;33568;45.286;9.900;2023-02-18T16:23:13;17.40;66.90
47805;DHT22;33568;45.286;9.900;2023-02-18T16:25:44;17.30;66.90
47805;DHT22;33568;45.286;9.900;2023-02-18T16:28:14;17.20;66.90
47805;DHT22;33568;45.286;9.900;2023-02-18T16:30:42;17.10;66.50
47805;DHT22;33568;45.286;9.900;2023-02-18T16:33:11;17.00;66.10
47805;DHT22;33568;45.286;9.900;2023-02-18T16:35:38;16.90;65.90
47805;DHT22;33568;45.286;9.900;2023-02-18T16:38:05;16.90;65.60
47805;DHT22;33568;45.286;9.900;2023-02-18T16:40:37;16.80;65.40
47805;DHT22;33568;45.286;9.900;2023-02-18T16:43:16;16.70;65.10
47805;DHT22;33568;45.286;9.900;2023-02-18T16:45:49;16.60;65.00
47805;DHT22;33568;45.286;9.900;2023-02-18T16:50:49;16.50;65.50
47805;DHT22;33568;45.286;9.900;2023-02-18T16:53:16;16.40;65.50
47805;DHT22;33568;45.286;9.900;2023-02-18T16:55:42;16.30;65.50
47805;DHT22;33568;45.286;9.900;2023-02-18T16:58:09;16.20;65.90
47805;DHT22;33568;45.286;9.900;2023-02-18T17:00:35;16.20;65.90
47805;DHT22;33568;45.286;9.900;2023-02-18T17:03:02;16.00;66.40
47805;DHT22;33568;45.286;9.900;2023-02-18T17:05:32;16.00;66.30
47805;DHT22;33568;45.286;9.900;2023-02-18T17:10:41;15.90;66.60
47805;DHT22;33568;45.286;9.900;2023-02-18T17:13:13;15.80;66.90
47805;DHT22;33568;45.286;9.900;2023-02-18T17:15:41;15.80;67.10
47805;DHT22;33568;45.286;9.900;2023-02-18T17:18:08;15.70;67.30
47805;DHT22;33568;45.286;9.900;2023-02-18T17:20:34;15.60;67.60
47805;DHT22;33568;45.286;9.900;2023-02-18T17:23:00;15.60;67.90
47805;DHT22;33568;45.286;9.900;2023-02-18T17:25:38;15.40;68.70
47805;DHT22;33568;45.286;9.900;2023-02-18T17:28:06;15.40;68.30
47805;DHT22;33568;45.286;9.900;2023-02-18T17:30:38;15.40;68.40
47805;DHT22;33568;45.286;9.900;2023-02-18T17:33:06;15.30;68.60
47805;DHT22;33568;45.286;9.900;2023-02-18T17:35:33;15.30;68.90
47805;DHT22;33568;45.286;9.900;2023-02-18T17:37:59;15.20;69.00
47805;DHT22;33568;45.286;9.900;2023-02-18T17:40:27;15.10;69.70
47805;DHT22;33568;45.286;9.900;2023-02-18T17:42:54;15.10;69.20
47805;DHT22;33568;45.286;9.900;2023-02-18T17:45:31;15.00;69.20
47805;DHT22;33568;45.286;9.900;2023-02-18T17:47:59;15.00;69.40
47805;DHT22;33568;45.286;9.900;2023-02-18T17:50:28;14.90;70.10
47805;DHT22;33568;45.286;9.900;2023-02-18T17:52:55;14.90;69.60
47805;DHT22;33568;45.286;9.900;2023-02-18T17:55:27;14.80;69.70
47805;DHT22;33568;45.286;9.900;2023-02-18T17:57:54;14.80;69.90
47805;DHT22;33568;45.286;9.900;2023-02-18T18:00:24;14.70;70.00
47805;DHT22;33568;45.286;9.900;2023-02-18T18:02:51;14.70;70.20
47805;DHT22;33568;45.286;9.900;2023-02-18T18:05:21;14.70;70.30
47805;DHT22;33568;45.286;9.900;2023-02-18T18:07:48;14.60;70.50
47805;DHT22;33568;45.286;9.900;2023-02-18T18:10:17;14.50;70.70
47805;DHT22;33568;45.286;9.900;2023-02-18T18:12:44;14.50;70.80
47805;DHT22;33568;45.286;9.900;2023-02-18T18:15:33;14.50;71.00
47805;DHT22;33568;45.286;9.900;2023-02-18T18:18:01;14.40;71.10
47805;DHT22;33568;45.286;9.900;2023-02-18T18:20:30;14.40;71.20
47805;DHT22;33568;45.286;9.900;2023-02-18T18:22:58;14.20;71.50
47805;DHT22;33568;45.286;9.900;2023-02-18T18:25:46;14.20;71.80
47805;DHT22;33568;45.286;9.900;2023-02-18T18:28:13;14.10;72.10
47805;DHT22;33568;45.286;9.900;2023-02-18T18:30:43;14.00;72.30
47805;DHT22;33568;45.286;9.900;2023-02-18T18:33:25;14.00;72.50
47805;DHT22;33568;45.286;9.900;2023-02-18T18:35:53;13.90;72.80